METAR UND TAF INFORMATION
LICA 161050Z AUTO 27006KT 9999 NCD 28/19 Q1019

 FLUGHAFENKARTE

 RUNWAY INFORMATION
Runway 10 Runway length 7920 ft Runway width 148 ft
Runway elevation 20 ft Runway displaced threshold 348 ft Runway heading 99
Runway 28 Runway length 7920 ft Runway width 148 ft
Runway elevation 39 ft Runway displaced threshold 351 ft Runway heading 279

 AIRPORT FREQUENCIES
Type APP Name APP Frequency 118.8 MHZ
Type TWR Name TWR Frequency 119.7 MHZ

 AIRPORT NEAR NAVIGATION AIDS
Type VOR-DME Name Lamezia Terme Frequency 112500 KHZ